createdAt,value
2023-06-19T00:00:25.330Z,24
2023-06-19T00:02:56.443Z,23
2023-06-19T00:05:26.766Z,24
2023-06-19T00:07:58.022Z,26
2023-06-19T00:10:29.206Z,22
2023-06-19T00:12:59.755Z,23
2023-06-19T00:15:30.726Z,23
2023-06-19T00:18:01.126Z,23
2023-06-19T00:20:31.610Z,22
2023-06-19T00:23:02.443Z,24
2023-06-19T00:25:32.411Z,28
2023-06-19T00:28:02.853Z,23
2023-06-19T00:30:33.236Z,22
2023-06-19T00:33:03.965Z,20
2023-06-19T00:35:34.374Z,23
2023-06-19T00:38:05.436Z,24
2023-06-19T00:40:36.260Z,24
2023-06-19T00:43:07.461Z,24
2023-06-19T00:45:37.809Z,23
2023-06-19T00:48:08.596Z,24
2023-06-19T00:50:40.059Z,21
2023-06-19T00:53:09.563Z,24
2023-06-19T00:55:40.292Z,21
2023-06-19T00:58:12.388Z,22
2023-06-19T01:00:52.857Z,24
2023-06-19T01:03:18.552Z,24
2023-06-19T01:05:47.119Z,20
2023-06-19T01:08:17.908Z,23
2023-06-19T01:10:49.637Z,20
2023-06-19T01:13:20.878Z,20
2023-06-19T01:15:52.617Z,20
2023-06-19T01:18:23.547Z,24
2023-06-19T01:20:54.844Z,24
2023-06-19T01:23:25.588Z,24
2023-06-19T01:25:56.459Z,20
2023-06-19T01:28:27.075Z,20
2023-06-19T01:30:57.990Z,23
2023-06-19T01:33:28.939Z,20
2023-06-19T01:35:59.732Z,25
2023-06-19T01:38:30.853Z,22
2023-06-19T01:41:01.678Z,21
2023-06-19T01:43:32.333Z,24
2023-06-19T01:46:03.586Z,22
2023-06-19T01:48:35.570Z,20
2023-06-19T01:51:06.191Z,23
2023-06-19T01:53:36.875Z,23
2023-06-19T01:56:07.596Z,20
2023-06-19T01:58:41.113Z,23
2023-06-19T02:01:11.680Z,16
2023-06-19T02:03:44.583Z,23
2023-06-19T02:06:15.416Z,24
2023-06-19T02:08:46.425Z,20
2023-06-19T02:11:17.225Z,20
2023-06-19T02:13:47.698Z,23
2023-06-19T02:16:19.397Z,20
2023-06-19T02:18:50.024Z,16
2023-06-19T02:21:20.773Z,21
2023-06-19T02:23:51.815Z,20
2023-06-19T02:26:22.725Z,24
2023-06-19T02:28:53.520Z,19
2023-06-19T02:31:24.228Z,20
2023-06-19T02:33:54.359Z,20
2023-06-19T02:36:25.335Z,24
2023-06-19T02:38:56.179Z,20
2023-06-19T02:41:26.887Z,24
2023-06-19T02:43:57.951Z,24
2023-06-19T02:46:28.695Z,21
2023-06-19T02:48:59.265Z,20
2023-06-19T02:51:29.877Z,20
2023-06-19T02:54:00.890Z,20
2023-06-19T02:56:32.088Z,20
2023-06-19T02:59:03.305Z,17
2023-06-19T03:01:34.032Z,20
2023-06-19T03:04:05.692Z,20
2023-06-19T03:06:36.853Z,21
2023-06-19T03:09:07.534Z,22
2023-06-19T03:11:38.538Z,20
2023-06-19T03:14:10.736Z,19
2023-06-19T03:16:41.688Z,20
2023-06-19T03:19:13.017Z,20
2023-06-19T03:21:43.876Z,24
2023-06-19T03:24:14.809Z,20
2023-06-19T03:26:45.522Z,20
2023-06-19T03:29:16.019Z,20
2023-06-19T03:31:47.441Z,20
2023-06-19T03:34:18.419Z,17
2023-06-19T03:36:51.092Z,24
2023-06-19T03:39:22.834Z,19
2023-06-19T03:41:53.841Z,21
2023-06-19T03:44:24.370Z,23
2023-06-19T03:46:55.673Z,23
2023-06-19T03:49:26.515Z,20
2023-06-19T03:51:57.034Z,19
2023-06-19T03:54:28.191Z,21
2023-06-19T03:57:00.638Z,20
2023-06-19T03:59:32.433Z,20
2023-06-19T04:02:03.050Z,25
2023-06-19T04:04:33.603Z,24
2023-06-19T04:07:03.716Z,20
2023-06-19T04:09:33.023Z,23
2023-06-19T04:12:05.647Z,24
2023-06-19T04:14:36.500Z,24
2023-06-19T04:17:07.203Z,24
2023-06-19T04:19:37.932Z,28
2023-06-19T04:22:08.563Z,28
2023-06-19T04:24:39.702Z,31
2023-06-19T04:27:10.489Z,24
2023-06-19T04:29:41.964Z,32
2023-06-19T04:32:13.062Z,28
2023-06-19T04:34:43.714Z,21
2023-06-19T04:37:14.669Z,24
2023-06-19T04:39:45.788Z,28
2023-06-19T04:42:16.638Z,36
2023-06-19T04:44:46.135Z,28
2023-06-19T04:47:18.104Z,29
2023-06-19T04:49:49.287Z,28
2023-06-19T04:52:21.266Z,28
2023-06-19T04:54:51.830Z,24
2023-06-19T04:57:22.572Z,26
2023-06-19T04:59:53.646Z,32
2023-06-19T05:02:24.299Z,36
2023-06-19T05:04:54.982Z,33
2023-06-19T05:07:26.950Z,32
2023-06-19T05:09:58.427Z,28
2023-06-19T05:12:29.103Z,27
2023-06-19T05:15:00.095Z,28
2023-06-19T05:17:30.649Z,28
2023-06-19T05:20:02.320Z,27
2023-06-19T05:22:32.879Z,30
2023-06-19T05:25:03.535Z,28
2023-06-19T05:27:34.049Z,24
2023-06-19T05:30:04.785Z,26
2023-06-19T05:32:37.273Z,20
2023-06-19T05:35:08.294Z,24
2023-06-19T05:37:38.981Z,24
2023-06-19T05:40:09.982Z,25
2023-06-19T05:42:40.297Z,27
2023-06-19T05:45:10.846Z,21
2023-06-19T05:47:41.906Z,20
2023-06-19T05:50:13.148Z,21
2023-06-19T05:52:45.038Z,24
2023-06-19T05:55:16.316Z,20
2023-06-19T05:57:49.073Z,21
2023-06-19T06:00:19.721Z,28
2023-06-19T06:02:50.800Z,24
2023-06-19T06:05:21.429Z,24
2023-06-19T06:07:52.820Z,24
2023-06-19T06:10:24.205Z,20
2023-06-19T06:12:55.049Z,20
2023-06-19T06:15:25.640Z,20
2023-06-19T06:17:56.458Z,24
2023-06-19T06:20:27.082Z,24
2023-06-19T06:22:58.212Z,28
2023-06-19T06:25:29.586Z,24
2023-06-19T06:27:59.789Z,19
2023-06-19T06:30:30.373Z,20
2023-06-19T06:33:01.021Z,19
2023-06-19T06:35:32.216Z,20
2023-06-19T06:38:03.222Z,20
2023-06-19T06:40:34.411Z,20
2023-06-19T06:43:05.187Z,16
2023-06-19T06:45:36.109Z,16
2023-06-19T06:48:06.689Z,16
2023-06-19T06:50:37.905Z,16
2023-06-19T06:53:10.563Z,20
2023-06-19T06:55:41.479Z,17
2023-06-19T06:58:11.968Z,20
2023-06-19T07:00:42.695Z,20
2023-06-19T07:03:13.553Z,19
2023-06-19T07:05:44.090Z,16
2023-06-19T07:08:14.821Z,16
2023-06-19T07:10:45.506Z,16
2023-06-19T07:13:16.098Z,23
2023-06-19T07:15:47.382Z,16
2023-06-19T07:18:17.937Z,16
2023-06-19T07:20:48.569Z,20
2023-06-19T07:23:19.007Z,20
2023-06-19T07:25:49.878Z,20
2023-06-19T07:28:21.831Z,20
2023-06-19T07:30:55.753Z,12
2023-06-19T07:33:26.336Z,16
2023-06-19T07:35:56.969Z,15
2023-06-19T07:38:34.204Z,20
2023-06-19T07:41:06.135Z,14
2023-06-19T07:43:36.987Z,18
2023-06-19T07:46:07.893Z,16
2023-06-19T07:48:39.543Z,16
2023-06-19T07:51:10.671Z,20
2023-06-19T07:53:42.337Z,16
2023-06-19T07:56:13.279Z,24
2023-06-19T07:58:44.268Z,16
2023-06-19T08:01:16.328Z,16
2023-06-19T08:03:47.185Z,18
2023-06-19T08:06:18.007Z,19
2023-06-19T08:08:48.710Z,17
2023-06-19T08:11:20.181Z,12
2023-06-19T08:13:51.011Z,16
2023-06-19T08:16:23.665Z,16
2023-06-19T08:18:55.667Z,20
2023-06-19T08:21:26.214Z,20
2023-06-19T08:23:57.835Z,20
2023-06-19T08:26:28.559Z,18
2023-06-19T08:28:58.731Z,16
2023-06-19T08:31:29.462Z,16
2023-06-19T08:34:00.256Z,16
2023-06-19T08:36:31.222Z,20
2023-06-19T08:39:01.664Z,21
2023-06-19T08:41:34.429Z,18
2023-06-19T08:44:05.136Z,17
2023-06-19T08:46:35.862Z,20
2023-06-19T08:49:06.496Z,20
2023-06-19T08:51:37.560Z,20
2023-06-19T08:54:08.325Z,20
2023-06-19T08:56:38.840Z,17
2023-06-19T08:59:09.464Z,20
2023-06-19T09:01:39.832Z,20
2023-06-19T09:04:11.249Z,16
2023-06-19T09:06:42.752Z,20
2023-06-19T09:09:14.358Z,21
2023-06-19T09:11:45.279Z,18
2023-06-19T09:14:16.102Z,21
2023-06-19T09:16:46.926Z,17
2023-06-19T09:19:17.776Z,20
2023-06-19T09:21:48.689Z,16
2023-06-19T09:24:19.180Z,15
2023-06-19T09:26:49.940Z,18
2023-06-19T09:29:21.682Z,16
2023-06-19T09:31:52.309Z,16
2023-06-19T09:34:22.827Z,16
2023-06-19T09:36:53.764Z,18
2023-06-19T09:39:24.366Z,20
2023-06-19T09:41:55.035Z,18
2023-06-19T09:44:25.630Z,20
2023-06-19T09:46:56.231Z,20
2023-06-19T09:49:27.200Z,19
2023-06-19T09:51:57.814Z,16
2023-06-19T09:54:28.270Z,19
2023-06-19T09:56:59.355Z,20
2023-06-19T09:59:30.671Z,19
2023-06-19T10:02:01.291Z,16
2023-06-19T10:04:31.895Z,19
2023-06-19T10:07:02.931Z,16
2023-06-19T10:09:33.668Z,22
2023-06-19T10:12:04.530Z,16
2023-06-19T10:14:35.142Z,15
2023-06-19T10:17:06.420Z,24
2023-06-19T10:19:37.424Z,16
2023-06-19T10:22:08.189Z,24
2023-06-19T10:24:38.691Z,20
2023-06-19T10:27:09.622Z,20
2023-06-19T10:29:40.160Z,20
2023-06-19T10:32:10.859Z,16
2023-06-19T10:34:42.005Z,16
2023-06-19T10:37:12.765Z,20
2023-06-19T10:39:43.245Z,23
2023-06-19T10:42:14.032Z,16
2023-06-19T10:44:44.440Z,24
2023-06-19T10:47:15.217Z,18
2023-06-19T10:49:45.844Z,16
2023-06-19T10:52:16.721Z,20
2023-06-19T10:54:48.084Z,16
2023-06-19T10:57:19.403Z,16
2023-06-19T10:59:50.273Z,19
2023-06-19T11:02:22.890Z,16
2023-06-19T11:04:53.530Z,16
2023-06-19T11:07:24.000Z,16
2023-06-19T11:09:54.169Z,16
2023-06-19T11:12:24.595Z,20
2023-06-19T11:14:55.176Z,16
2023-06-19T11:17:25.872Z,16
2023-06-19T11:19:57.477Z,19
2023-06-19T11:22:28.180Z,18
2023-06-19T11:25:02.616Z,16
2023-06-19T11:27:34.601Z,16
2023-06-19T11:30:05.196Z,20
2023-06-19T11:32:38.131Z,16
2023-06-19T11:35:08.999Z,17
2023-06-19T11:37:39.505Z,20
2023-06-19T11:40:14.665Z,18
2023-06-19T11:42:46.151Z,19
2023-06-19T11:45:16.718Z,20
2023-06-19T11:47:47.447Z,17
2023-06-19T11:50:18.144Z,21
2023-06-19T11:52:48.862Z,18
2023-06-19T11:55:19.487Z,19
2023-06-19T11:57:50.247Z,20
2023-06-19T12:00:22.271Z,19
2023-06-19T12:02:52.709Z,18
2023-06-19T12:05:23.082Z,20
2023-06-19T12:07:53.764Z,23
2023-06-19T12:10:25.090Z,22
2023-06-19T12:12:57.139Z,24
2023-06-19T12:15:29.385Z,20
2023-06-19T12:18:00.149Z,22
2023-06-19T12:20:30.668Z,20
2023-06-19T12:23:01.382Z,20
2023-06-19T12:25:32.991Z,16
2023-06-19T12:28:03.444Z,18
2023-06-19T12:30:34.509Z,20
2023-06-19T12:33:05.023Z,20
2023-06-19T12:35:35.639Z,18
2023-06-19T12:38:07.577Z,16
2023-06-19T12:40:37.383Z,20
2023-06-19T12:43:08.089Z,17
2023-06-19T12:45:38.917Z,20
2023-06-19T12:48:10.267Z,23
2023-06-19T12:50:40.964Z,20
2023-06-19T12:53:11.578Z,19
2023-06-19T12:55:56.278Z,21
2023-06-19T12:58:15.467Z,20
2023-06-19T13:00:45.710Z,21
2023-06-19T13:03:16.742Z,21
2023-06-19T13:05:47.066Z,20
2023-06-19T13:08:18.451Z,23
2023-06-19T13:10:48.760Z,20
2023-06-19T13:13:19.843Z,21
2023-06-19T13:15:50.622Z,24
2023-06-19T13:18:21.612Z,20
2023-06-19T13:20:51.921Z,20
2023-06-19T13:23:22.548Z,19
2023-06-19T13:25:53.282Z,20
2023-06-19T13:28:25.777Z,16
2023-06-19T13:30:56.301Z,24
2023-06-19T13:33:30.682Z,32
2023-06-19T13:36:01.023Z,23
2023-06-19T13:38:31.825Z,21
2023-06-19T13:41:02.439Z,21
2023-06-19T13:43:32.998Z,20
2023-06-19T13:46:03.567Z,24
2023-06-19T13:48:34.373Z,20
2023-06-19T13:51:05.169Z,20
2023-06-19T13:53:36.374Z,22
2023-06-19T13:56:06.910Z,20
2023-06-19T13:58:37.893Z,20
2023-06-19T14:01:08.603Z,21
2023-06-19T14:03:38.905Z,20
2023-06-19T14:06:09.754Z,20
2023-06-19T14:08:40.526Z,18
2023-06-19T14:11:11.177Z,19
2023-06-19T14:13:41.735Z,20
2023-06-19T14:16:12.345Z,20
2023-06-19T14:18:43.099Z,20
2023-06-19T14:21:13.441Z,20
2023-06-19T14:23:44.349Z,24
2023-06-19T14:26:14.812Z,20
2023-06-19T14:28:46.276Z,20
2023-06-19T14:31:16.853Z,20
2023-06-19T14:33:47.419Z,20
2023-06-19T14:36:17.881Z,22
2023-06-19T14:38:51.725Z,16
2023-06-19T14:41:24.793Z,21
2023-06-19T14:43:55.078Z,24
2023-06-19T14:46:38.000Z,21
2023-06-19T14:48:55.966Z,16
2023-06-19T14:51:26.611Z,19
2023-06-19T14:53:57.586Z,17
2023-06-19T14:56:28.148Z,19
2023-06-19T14:58:58.749Z,20
2023-06-19T15:01:30.212Z,20
2023-06-19T15:04:02.074Z,20
2023-06-19T15:06:32.454Z,17
2023-06-19T15:09:04.294Z,24
2023-06-19T15:11:33.504Z,20
2023-06-19T15:14:03.970Z,24
2023-06-19T15:16:36.759Z,23
2023-06-19T15:19:05.430Z,25
2023-06-19T15:21:36.027Z,20
2023-06-19T15:24:06.615Z,20
2023-06-19T15:26:40.265Z,20
2023-06-19T15:29:10.099Z,20
2023-06-19T15:31:41.146Z,24
2023-06-19T15:34:11.750Z,17
2023-06-19T15:36:43.064Z,20
2023-06-19T15:39:14.005Z,21
2023-06-19T15:41:45.644Z,24
2023-06-19T15:44:16.729Z,16
2023-06-19T15:46:47.475Z,24
2023-06-19T15:49:19.720Z,21
2023-06-19T15:51:52.091Z,20
2023-06-19T15:54:22.818Z,20
2023-06-19T15:56:53.626Z,24
2023-06-19T15:59:25.505Z,25
2023-06-19T16:01:57.228Z,30
2023-06-19T16:04:27.525Z,24
2023-06-19T16:06:58.478Z,44
2023-06-19T16:09:34.862Z,32
2023-06-19T16:12:02.787Z,24
2023-06-19T16:14:33.712Z,24
2023-06-19T16:17:04.158Z,28
2023-06-19T16:19:35.127Z,26
2023-06-19T16:22:05.280Z,28
2023-06-19T16:24:36.024Z,23
2023-06-19T16:27:06.620Z,24
2023-06-19T16:29:37.290Z,24
2023-06-19T16:32:10.507Z,24
2023-06-19T16:34:39.422Z,24
2023-06-19T16:37:11.556Z,39
2023-06-19T16:39:41.966Z,38
2023-06-19T16:42:12.551Z,25
2023-06-19T16:44:43.055Z,32
2023-06-19T16:47:13.749Z,28
2023-06-19T16:49:44.281Z,21
2023-06-19T16:52:16.875Z,28
2023-06-19T16:54:49.336Z,28
2023-06-19T16:57:20.636Z,28
2023-06-19T16:59:51.300Z,22
2023-06-19T17:02:21.980Z,24
2023-06-19T17:04:53.970Z,20
2023-06-19T17:07:24.286Z,24
2023-06-19T17:09:56.384Z,23
2023-06-19T17:12:27.553Z,24
2023-06-19T17:14:57.920Z,27
2023-06-19T17:17:28.445Z,24
2023-06-19T17:20:00.362Z,25
2023-06-19T17:22:30.964Z,24
2023-06-19T17:25:00.234Z,28
2023-06-19T17:27:31.374Z,24
2023-06-19T17:30:02.054Z,28
2023-06-19T17:32:33.114Z,28
2023-06-19T17:35:04.113Z,30
2023-06-19T17:37:34.821Z,28
2023-06-19T17:40:05.805Z,28
2023-06-19T17:42:36.570Z,29
2023-06-19T17:45:07.200Z,40
2023-06-19T17:47:36.280Z,38
2023-06-19T17:50:06.731Z,30
2023-06-19T17:52:37.363Z,28
2023-06-19T17:55:08.268Z,29
2023-06-19T17:57:38.820Z,28
2023-06-19T18:00:09.867Z,28
2023-06-19T18:02:40.283Z,35
2023-06-19T18:05:11.353Z,28
2023-06-19T18:07:42.121Z,32
2023-06-19T18:10:14.712Z,32
2023-06-19T18:12:44.937Z,28
2023-06-19T18:15:15.895Z,33
2023-06-19T18:17:46.735Z,28
2023-06-19T18:20:17.089Z,32
2023-06-19T18:22:47.548Z,32
2023-06-19T18:25:18.026Z,32
2023-06-19T18:27:48.898Z,32
2023-06-19T18:30:21.002Z,32
2023-06-19T18:32:51.961Z,32
2023-06-19T18:35:22.747Z,36
2023-06-19T18:37:53.762Z,34
2023-06-19T18:40:25.167Z,35
2023-06-19T18:42:55.704Z,36
2023-06-19T18:45:26.110Z,36
2023-06-19T18:47:56.510Z,32
2023-06-19T18:50:27.521Z,32
2023-06-19T18:53:00.092Z,32
2023-06-19T18:55:30.357Z,32
2023-06-19T18:58:01.324Z,36
2023-06-19T19:00:32.870Z,32
2023-06-19T19:03:03.438Z,33
2023-06-19T19:05:33.937Z,32
2023-06-19T19:08:04.492Z,36
2023-06-19T19:10:35.478Z,32
2023-06-19T19:13:06.013Z,36
2023-06-19T19:15:38.273Z,33
2023-06-19T19:18:09.886Z,34
2023-06-19T19:20:40.470Z,32
2023-06-19T19:23:11.402Z,36
2023-06-19T19:25:42.520Z,36
2023-06-19T19:28:14.552Z,36
2023-06-19T19:30:46.884Z,35
2023-06-19T19:33:17.714Z,32
2023-06-19T19:35:48.013Z,39
2023-06-19T19:38:18.343Z,36
2023-06-19T19:40:49.016Z,35
2023-06-19T19:43:19.475Z,36
2023-06-19T19:45:50.400Z,36
2023-06-19T19:48:20.988Z,33
2023-06-19T19:50:51.801Z,36
2023-06-19T19:53:22.262Z,40
2023-06-19T19:55:52.398Z,42
2023-06-19T19:58:22.489Z,40
2023-06-19T20:00:52.662Z,40
2023-06-19T20:03:23.202Z,41
2023-06-19T20:05:53.691Z,43
2023-06-19T20:08:24.055Z,40
2023-06-19T20:10:54.523Z,40
2023-06-19T20:13:24.923Z,40
2023-06-19T20:15:55.285Z,36
2023-06-19T20:18:28.171Z,39
2023-06-19T20:20:59.773Z,40
2023-06-19T20:23:32.441Z,40
2023-06-19T20:26:03.033Z,37
2023-06-19T20:28:33.544Z,40
2023-06-19T20:31:04.671Z,40
2023-06-19T20:33:35.218Z,40
2023-06-19T20:36:10.380Z,44
2023-06-19T20:38:41.673Z,44
2023-06-19T20:41:13.108Z,43
2023-06-19T20:43:43.003Z,41
2023-06-19T20:46:14.125Z,44
2023-06-19T20:48:46.229Z,40
2023-06-19T20:51:16.649Z,40
2023-06-19T20:53:46.837Z,40
2023-06-19T20:56:19.214Z,40
2023-06-19T20:58:50.228Z,44
2023-06-19T21:01:19.083Z,38
2023-06-19T21:03:49.837Z,36
2023-06-19T21:06:20.292Z,40
2023-06-19T21:08:52.084Z,40
2023-06-19T21:11:22.386Z,40
2023-06-19T21:13:55.196Z,39
2023-06-19T21:16:25.894Z,40
2023-06-19T21:18:57.091Z,40
2023-06-19T21:21:28.482Z,39
2023-06-19T21:24:01.625Z,40
2023-06-19T21:26:33.663Z,40
2023-06-19T21:29:04.561Z,36
2023-06-19T21:31:35.090Z,38
2023-06-19T21:34:07.896Z,39
2023-06-19T21:36:38.375Z,36
2023-06-19T21:39:09.335Z,36
2023-06-19T21:41:39.683Z,36
2023-06-19T21:44:11.309Z,36
2023-06-19T21:46:42.344Z,36
2023-06-19T21:49:12.908Z,37
2023-06-19T21:51:43.628Z,37
2023-06-19T21:54:13.912Z,36
2023-06-19T21:56:44.356Z,37
2023-06-19T21:59:14.925Z,39
2023-06-19T22:01:45.478Z,34
2023-06-19T22:04:16.422Z,32
2023-06-19T22:06:46.906Z,36
2023-06-19T22:09:17.577Z,39
2023-06-19T22:11:48.621Z,36
2023-06-19T22:14:21.617Z,40
2023-06-19T22:16:52.037Z,36
2023-06-19T22:19:22.913Z,36
2023-06-19T22:21:53.612Z,36
2023-06-19T22:24:24.612Z,39
2023-06-19T22:26:55.556Z,40
2023-06-19T22:29:26.482Z,36
2023-06-19T22:31:57.143Z,38
2023-06-19T22:34:28.442Z,36
2023-06-19T22:36:59.026Z,36
2023-06-19T22:39:31.618Z,36
2023-06-19T22:42:02.273Z,36
2023-06-19T22:44:33.388Z,36
2023-06-19T22:47:03.727Z,36
2023-06-19T22:49:34.121Z,33
2023-06-19T22:52:04.664Z,32
2023-06-19T22:54:36.478Z,36
2023-06-19T22:57:11.943Z,39
2023-06-19T22:59:43.138Z,36
2023-06-19T23:02:14.828Z,36
2023-06-19T23:04:45.221Z,32
2023-06-19T23:07:15.886Z,32
2023-06-19T23:09:46.648Z,32
2023-06-19T23:12:17.828Z,36
2023-06-19T23:14:48.591Z,35
2023-06-19T23:17:19.189Z,36
2023-06-19T23:19:50.413Z,36
2023-06-19T23:22:21.436Z,36
2023-06-19T23:24:52.322Z,34
2023-06-19T23:27:22.948Z,40
2023-06-19T23:29:54.849Z,36
2023-06-19T23:32:25.572Z,36
2023-06-19T23:34:57.473Z,36
2023-06-19T23:37:28.240Z,36
2023-06-19T23:39:58.675Z,35
2023-06-19T23:42:29.539Z,35
2023-06-19T23:45:01.025Z,36
2023-06-19T23:47:31.376Z,34
2023-06-19T23:50:01.946Z,36
2023-06-19T23:52:42.596Z,36
2023-06-19T23:55:03.281Z,34
2023-06-19T23:57:33.866Z,39
